Bookmark and Share
Track history (hours):
 

Humberborg

Last reported at 2014-Apr-17 23:16 UTC. Time now 2014-Apr-18 18:26 UTC.
Position N 36°45' W 000°17'.

Length 114 m; draft 6.2 m.

Type: Cargo ship. MMSI: 246012000.

NotesDate/timePositionNaut miles runAvg speedWind from/ knotsBaromVisibWave heightAir tempDewpointWater temp
2014-Apr-17 23:16N 36°45' W 000°17'2011.4
2014-Apr-17 21:32N 36°49' E 000°07'1311.7
2014-Apr-17 20:28N 36°51' E 000°22'6911.4
2014-Apr-17 14:26N 37°05' E 001°46'3410.8
2014-Apr-17 11:14N 37°12' E 002°29'811.4
2014-Apr-17 10:33N 37°14' E 002°38'1110.5
2014-Apr-17 09:33N 37°16' E 002°51'1411.0
2014-Apr-17 08:17N 37°19' E 003°08'3111.1
2014-Apr-17 05:27N 37°25' E 003°47'1010.0
2014-Apr-17 04:30N 37°26' E 003°59'33910.9
2014-Apr-15 21:26N 37°30' E 011°06'13110.2
2014-Apr-15 08:34N 36°52' E 013°43'1111.3
2014-Apr-15 07:34N 36°49' E 013°57'1111.2
2014-Apr-15 06:34N 36°45' E 014°10'1111.2
2014-Apr-15 05:34N 36°42' E 014°23'44810.1
2014-Apr-13 09:21N 37°41' E 023°42'911.5
2014-Apr-13 08:34N 37°49' E 023°36'7 6.2
2014-Apr-13 07:30N 37°55' E 023°33'0 0.0
2014-Apr-13 06:30N 37°55' E 023°33'0 0.0
2014-Apr-13 05:30N 37°55' E 023°33'0 0.0
2014-Apr-13 04:27N 37°55' E 023°33'0 0.0
2014-Apr-13 03:33N 37°55' E 023°33'0 0.0
2014-Apr-13 02:33N 37°55' E 023°33'0 0.0
2014-Apr-13 01:33N 37°55' E 023°33'2 2.2
2014-Apr-13 00:34N 37°54' E 023°35'9 8.6
2014-Apr-12 23:33N 37°47' E 023°42'9 8.5
2014-Apr-12 22:32N 37°39' E 023°48'  

Dump ship's entire track history

sailing weather and tide predictions

Humberborg — PHFC — position and weather